createdAt,value
2024-05-09T00:00:03.660Z,2
2024-05-09T00:05:03.313Z,2
2024-05-09T00:10:03.166Z,2
2024-05-09T00:15:02.342Z,2
2024-05-09T00:20:03.251Z,2
2024-05-09T00:25:02.273Z,2
2024-05-09T00:30:04.024Z,0
2024-05-09T00:35:02.461Z,0
2024-05-09T00:40:02.818Z,0
2024-05-09T00:45:02.950Z,0
2024-05-09T00:50:02.466Z,0
2024-05-09T00:55:02.308Z,0
2024-05-09T01:00:03.637Z,0
2024-05-09T01:05:03.049Z,0
2024-05-09T01:10:02.473Z,0
2024-05-09T01:15:02.622Z,0
2024-05-09T01:20:05.748Z,0
2024-05-09T01:25:02.134Z,0
2024-05-09T01:30:05.358Z,2
2024-05-09T01:35:03.175Z,2
2024-05-09T01:40:02.473Z,2
2024-05-09T01:45:02.967Z,2
2024-05-09T01:50:02.250Z,2
2024-05-09T01:55:05.831Z,2
2024-05-09T02:00:03.645Z,1
2024-05-09T02:05:03.143Z,1
2024-05-09T02:10:03.756Z,0
2024-05-09T02:15:02.679Z,0
2024-05-09T02:20:02.941Z,2
2024-05-09T02:25:02.152Z,2
2024-05-09T02:30:02.396Z,2
2024-05-09T02:35:02.967Z,2
2024-05-09T02:40:03.317Z,2
2024-05-09T02:45:02.602Z,2
2024-05-09T02:50:03.097Z,2
2024-05-09T02:55:02.874Z,2
2024-05-09T03:00:03.598Z,3
2024-05-09T03:05:02.888Z,3
2024-05-09T03:10:02.188Z,1
2024-05-09T03:15:02.501Z,1
2024-05-09T03:20:04.125Z,7
2024-05-09T03:25:02.490Z,7
2024-05-09T03:30:03.995Z,28
2024-05-09T03:35:02.799Z,28
2024-05-09T03:40:03.073Z,59
2024-05-09T03:45:02.322Z,67
2024-05-09T03:50:04.390Z,67
2024-05-09T03:55:02.565Z,182
2024-05-09T04:00:03.013Z,182
2024-05-09T04:05:02.293Z,425
2024-05-09T04:10:04.013Z,425
2024-05-09T04:15:02.324Z,680
2024-05-09T04:20:02.612Z,680
2024-05-09T04:25:02.792Z,1000
2024-05-09T04:30:03.709Z,1000
2024-05-09T04:35:02.927Z,1000
2024-05-09T04:40:02.308Z,1000
2024-05-09T04:45:02.509Z,2000
2024-05-09T04:50:02.765Z,2000
2024-05-09T04:55:03.002Z,2000
2024-05-09T05:00:03.002Z,2000
2024-05-09T05:05:02.350Z,2000
2024-05-09T05:10:04.525Z,3000
2024-05-09T05:15:02.906Z,3000
2024-05-09T05:20:02.410Z,3000
2024-05-09T05:25:02.808Z,3000
2024-05-09T05:30:03.559Z,3000
2024-05-09T05:35:03.057Z,3000
2024-05-09T05:40:02.502Z,4000
2024-05-09T05:45:02.729Z,4000
2024-05-09T05:50:03.035Z,4000
2024-05-09T05:55:02.281Z,4000
2024-05-09T06:00:04.081Z,5000
2024-05-09T06:05:02.449Z,5000
2024-05-09T06:10:05.270Z,5000
2024-05-09T06:15:02.248Z,5000
2024-05-09T06:20:02.529Z,6000
2024-05-09T06:25:02.795Z,6000
2024-05-09T06:30:03.012Z,6000
2024-05-09T06:35:02.903Z,6000
2024-05-09T06:40:04.143Z,7000
2024-05-09T06:45:02.680Z,7000
2024-05-09T06:50:03.723Z,7000
2024-05-09T06:55:02.967Z,7000
2024-05-09T07:00:02.256Z,8000
2024-05-09T07:05:02.633Z,8000
2024-05-09T07:10:03.931Z,9000
2024-05-09T07:15:02.115Z,9000
2024-05-09T07:20:02.346Z,10000
2024-05-09T07:25:02.572Z,10000
2024-05-09T07:30:05.402Z,11000
2024-05-09T07:35:02.771Z,11000
2024-05-09T07:40:04.257Z,12000
2024-05-09T07:45:21.254Z,12000
2024-05-09T07:51:54.748Z,12000
2024-05-09T07:55:02.851Z,12000
2024-05-09T08:00:02.498Z,14000
2024-05-09T08:05:02.821Z,14000
2024-05-09T08:10:04.266Z,15000
2024-05-09T08:15:02.489Z,15000
2024-05-09T08:20:05.061Z,64000
2024-05-09T08:25:02.775Z,71000
2024-05-09T08:30:03.219Z,71000
2024-05-09T08:35:02.558Z,74000
2024-05-09T08:40:03.968Z,74000
2024-05-09T08:45:02.224Z,75000
2024-05-09T08:50:02.564Z,75000
2024-05-09T08:55:02.372Z,78000
2024-05-09T09:00:03.629Z,78000
2024-05-09T09:05:03.071Z,78000
2024-05-09T09:10:02.646Z,80000
2024-05-09T09:15:02.385Z,80000
2024-05-09T09:20:02.751Z,82000
2024-05-09T09:25:03.021Z,81000
2024-05-09T09:30:02.270Z,81000
2024-05-09T09:35:02.554Z,85000
2024-05-09T09:40:03.231Z,85000
2024-05-09T09:45:05.481Z,83000
2024-05-09T09:50:05.468Z,84000
2024-05-09T09:55:02.479Z,84000
2024-05-09T10:00:05.609Z,84000
2024-05-09T10:05:02.651Z,87000
2024-05-09T10:10:03.355Z,87000
2024-05-09T10:15:02.277Z,88000
2024-05-09T10:20:04.087Z,88000
2024-05-09T10:25:04.811Z,26000
2024-05-09T10:30:06.750Z,19000
2024-05-09T10:35:08.185Z,19000
2024-05-09T10:40:02.704Z,89000
2024-05-09T10:45:02.391Z,89000
2024-05-09T10:50:02.532Z,90000
2024-05-09T10:55:05.576Z,94000
2024-05-09T11:00:03.802Z,20000
2024-05-09T11:05:03.082Z,18000
2024-05-09T11:10:02.369Z,18000
2024-05-09T11:15:02.566Z,18000
2024-05-09T11:20:06.225Z,18000
2024-05-09T11:25:03.027Z,18000
2024-05-09T11:30:03.080Z,20000
2024-05-09T11:35:02.311Z,84000
2024-05-09T11:40:03.414Z,84000
2024-05-09T11:45:02.505Z,23000
2024-05-09T11:50:04.320Z,23000
2024-05-09T11:55:03.102Z,22000
2024-05-09T12:00:03.128Z,87000
2024-05-09T12:05:02.456Z,88000
2024-05-09T12:10:04.509Z,88000
2024-05-09T12:15:02.847Z,88000
2024-05-09T12:20:04.316Z,81000
2024-05-09T12:25:02.171Z,81000
2024-05-09T12:30:02.529Z,88000
2024-05-09T12:35:02.777Z,84000
2024-05-09T12:40:03.866Z,84000
2024-05-09T12:45:02.134Z,84000
2024-05-09T12:50:06.473Z,84000
2024-05-09T12:55:02.438Z,73000
2024-05-09T13:00:03.073Z,73000
2024-05-09T13:05:02.882Z,56000
2024-05-09T13:10:02.381Z,61000
2024-05-09T13:15:02.619Z,61000
2024-05-09T13:20:04.289Z,58000
2024-05-09T13:25:02.695Z,59000
2024-05-09T13:30:03.034Z,59000
2024-05-09T13:35:02.238Z,27000
2024-05-09T13:40:03.347Z,27000
2024-05-09T13:45:02.506Z,52000
2024-05-09T13:50:03.749Z,52000
2024-05-09T13:55:02.964Z,50000
2024-05-09T14:00:03.636Z,50000
2024-05-09T14:05:03.193Z,31000
2024-05-09T14:10:03.092Z,31000
2024-05-09T14:15:06.101Z,19000
2024-05-09T14:20:02.414Z,19000
2024-05-09T14:25:03.219Z,19000
2024-05-09T14:30:04.218Z,18000
2024-05-09T14:35:02.812Z,18000
2024-05-09T14:40:05.102Z,17000
2024-05-09T14:45:02.923Z,17000
2024-05-09T14:50:05.354Z,21000
2024-05-09T14:55:02.912Z,21000
2024-05-09T15:00:05.100Z,31000
2024-05-09T15:05:02.695Z,31000
2024-05-09T15:10:04.703Z,27000
2024-05-09T15:15:02.928Z,27000
2024-05-09T15:20:02.276Z,21000
2024-05-09T15:25:02.541Z,21000
2024-05-09T15:30:04.405Z,16000
2024-05-09T15:35:02.665Z,16000
2024-05-09T15:40:04.184Z,15000
2024-05-09T15:45:02.549Z,15000
2024-05-09T15:50:03.085Z,23000
2024-05-09T15:55:02.617Z,23000
2024-05-09T16:00:04.546Z,13000
2024-05-09T16:05:03.257Z,13000
2024-05-09T16:10:02.624Z,12000
2024-05-09T16:15:02.813Z,12000
2024-05-09T16:20:06.819Z,10000
2024-05-09T16:25:02.220Z,10000
2024-05-09T16:30:04.042Z,8000
2024-05-09T16:35:03.054Z,8000
2024-05-09T16:40:02.640Z,8000
2024-05-09T16:45:02.307Z,8000
2024-05-09T16:50:03.729Z,9000
2024-05-09T16:55:03.073Z,9000
2024-05-09T17:00:02.449Z,13000
2024-05-09T17:05:02.596Z,13000
2024-05-09T17:10:03.092Z,8000
2024-05-09T17:15:03.268Z,8000
2024-05-09T17:20:03.678Z,11000
2024-05-09T17:25:04.008Z,11000
2024-05-09T17:30:03.504Z,9000
2024-05-09T17:35:03.102Z,9000
2024-05-09T17:40:02.653Z,8000
2024-05-09T17:45:02.280Z,8000
2024-05-09T17:50:02.624Z,7000
2024-05-09T17:55:03.177Z,7000
2024-05-09T18:00:04.034Z,5000
2024-05-09T18:05:02.747Z,5000
2024-05-09T18:10:02.280Z,4000
2024-05-09T18:15:02.578Z,4000
2024-05-09T18:20:02.975Z,1000
2024-05-09T18:25:02.800Z,1000
2024-05-09T18:30:03.183Z,1000
2024-05-09T18:35:02.753Z,1000
2024-05-09T18:40:03.388Z,1000
2024-05-09T18:45:02.340Z,1000
2024-05-09T18:50:02.555Z,887
2024-05-09T18:55:03.119Z,887
2024-05-09T19:00:02.296Z,521
2024-05-09T19:05:02.663Z,521
2024-05-09T19:10:03.392Z,343
2024-05-09T19:15:02.718Z,343
2024-05-09T19:20:04.513Z,116
2024-05-09T19:25:02.813Z,116
2024-05-09T19:35:02.316Z,21
2024-05-09T19:40:02.640Z,13
2024-05-09T19:45:03.091Z,13
2024-05-09T19:50:02.234Z,3
2024-05-09T19:55:03.631Z,3
2024-05-09T20:00:04.294Z,0
2024-05-09T20:05:03.113Z,0
2024-05-09T20:10:05.125Z,0
2024-05-09T20:15:02.429Z,0
2024-05-09T20:20:03.672Z,3
2024-05-09T20:25:03.224Z,3
2024-05-09T20:30:03.075Z,3
2024-05-09T20:35:02.395Z,3
2024-05-09T20:40:03.722Z,1
2024-05-09T20:45:03.035Z,1
2024-05-09T20:50:02.296Z,3
2024-05-09T20:55:02.482Z,3
2024-05-09T21:00:03.403Z,2
2024-05-09T21:05:04.225Z,2
2024-05-09T21:10:03.703Z,0
2024-05-09T21:15:02.686Z,0
2024-05-09T21:20:03.602Z,0
2024-05-09T21:25:02.940Z,0
2024-05-09T21:30:02.517Z,2
2024-05-09T21:35:02.760Z,2
2024-05-09T21:40:03.901Z,2
2024-05-09T21:45:02.297Z,2
2024-05-09T21:50:02.484Z,2
2024-05-09T21:55:02.779Z,2
2024-05-09T22:00:04.454Z,2
2024-05-09T22:05:03.132Z,2
2024-05-09T22:10:02.639Z,2
2024-05-09T22:15:02.323Z,2
2024-05-09T22:20:02.716Z,2
2024-05-09T22:25:02.611Z,2
2024-05-09T22:30:04.059Z,2
2024-05-09T22:35:03.073Z,2
2024-05-09T22:40:04.737Z,2
2024-05-09T22:45:02.580Z,2
2024-05-09T22:50:02.929Z,0
2024-05-09T22:55:02.134Z,0
2024-05-09T23:00:02.547Z,0
2024-05-09T23:05:02.593Z,0
2024-05-09T23:10:04.361Z,0
2024-05-09T23:15:02.663Z,0
2024-05-09T23:20:05.149Z,0
2024-05-09T23:25:02.481Z,0
2024-05-09T23:30:04.562Z,0
2024-05-09T23:35:03.199Z,0
2024-05-09T23:40:03.868Z,2
2024-05-09T23:45:02.965Z,2
2024-05-09T23:50:05.014Z,0
2024-05-09T23:55:02.914Z,0
